Time;durP1;ratioP1;P1;durP2;ratioP2;P2;SDS_P1;SDS_P2;PMS_P1;PMS_P2;Temp;Humidity;BMP_temperature;BMP_pressure;BME280_temperature;BME280_humidity;BME280_pressure;Samples;Min_cycle;Max_cycle;Signal;HPM_P1;HPM_P2
2022/10/26 00:01:34;;;;;;;3.60;2.03;;;15.30;99.90;;;;;;4996348;28;20428;-70
2022/10/26 00:04:16;;;;;;;2.40;2.03;;;15.20;99.90;;;;;;4995514;28;20457;-70
2022/10/26 00:06:47;;;;;;;2.47;2.03;;;15.20;99.90;;;;;;4993492;28;20496;-70
2022/10/26 00:09:13;;;;;;;4.07;2.57;;;15.30;99.90;;;;;;4992494;28;20563;-70
2022/10/26 00:11:41;;;;;;;4.00;2.50;;;15.20;99.90;;;;;;4978701;28;20205;-70
2022/10/26 00:14:10;;;;;;;4.13;2.20;;;15.30;99.90;;;;;;5010511;28;20451;-70
2022/10/26 00:16:35;;;;;;;3.90;1.87;;;15.30;99.90;;;;;;4990562;28;20418;-70
2022/10/26 00:19:04;;;;;;;3.53;2.27;;;15.20;99.90;;;;;;4993252;28;20883;-70
2022/10/26 00:21:35;;;;;;;3.80;2.17;;;15.30;99.90;;;;;;5008063;28;20475;-70
2022/10/26 00:24:01;;;;;;;3.00;2.13;;;15.30;99.90;;;;;;4983297;28;20416;-70
2022/10/26 00:26:27;;;;;;;2.70;2.00;;;15.20;99.90;;;;;;5009790;28;20625;-70
2022/10/26 00:28:57;;;;;;;6.33;3.10;;;15.20;99.90;;;;;;4993341;28;20445;-70
2022/10/26 00:31:23;;;;;;;3.63;2.20;;;15.20;99.90;;;;;;5010067;28;20949;-70
2022/10/26 00:33:55;;;;;;;4.70;2.13;;;15.20;99.90;;;;;;5003306;28;20509;-70
2022/10/26 00:36:48;;;;;;;4.40;2.10;;;15.20;99.90;;;;;;4985103;28;20435;-70
2022/10/26 00:39:16;;;;;;;2.90;1.80;;;15.20;99.90;;;;;;5003462;28;20449;-70
2022/10/26 00:41:45;;;;;;;2.67;2.40;;;15.20;99.90;;;;;;4998509;28;20831;-70
2022/10/26 00:44:47;;;;;;;2.80;2.13;;;15.20;99.90;;;;;;4987313;28;20452;-70
2022/10/26 00:47:45;;;;;;;4.77;2.10;;;15.20;99.90;;;;;;5004444;28;20482;-70
2022/10/26 00:50:18;;;;;;;2.90;1.90;;;15.20;99.90;;;;;;5003559;28;20531;-70
2022/10/26 00:52:51;;;;;;;2.47;1.80;;;15.20;99.90;;;;;;5011173;28;20549;-70
2022/10/26 00:55:22;;;;;;;2.53;1.70;;;15.20;99.90;;;;;;4999887;28;20479;-70
2022/10/26 00:57:50;;;;;;;4.03;1.80;;;15.20;99.90;;;;;;4984613;28;20988;-70
2022/10/26 01:00:18;;;;;;;2.47;1.90;;;15.20;99.90;;;;;;5010725;28;20534;-70
2022/10/26 01:02:53;;;;;;;3.47;2.20;;;15.20;99.90;;;;;;4990474;28;20970;-70
2022/10/26 01:05:25;;;;;;;3.20;2.23;;;15.20;99.90;;;;;;5007756;28;20427;-70
2022/10/26 01:07:56;;;;;;;4.73;1.53;;;15.20;99.90;;;;;;4981824;28;20453;-70
2022/10/26 01:10:26;;;;;;;3.83;2.20;;;15.20;99.90;;;;;;5007362;28;20797;-70
2022/10/26 01:12:53;;;;;;;3.40;2.10;;;15.20;99.90;;;;;;4996110;28;20445;-70
2022/10/26 01:15:25;;;;;;;4.00;1.90;;;15.10;99.90;;;;;;5004415;28;20426;-70
2022/10/26 01:17:59;;;;;;;3.63;1.90;;;15.20;99.90;;;;;;5004190;28;20447;-70
2022/10/26 01:20:55;;;;;;;2.40;1.97;;;15.10;99.90;;;;;;5025529;28;20444;-70
2022/10/26 01:23:33;;;;;;;2.60;1.80;;;15.10;99.90;;;;;;5004470;28;20470;-70
2022/10/26 01:26:28;;;;;;;3.10;1.60;;;15.10;99.90;;;;;;4999093;28;20891;-70
2022/10/26 01:29:32;;;;;;;5.17;2.00;;;15.10;99.90;;;;;;4999267;28;20861;-70
2022/10/26 01:32:10;;;;;;;4.70;1.87;;;15.10;99.90;;;;;;5014365;28;20453;-70
2022/10/26 01:34:38;;;;;;;5.17;2.20;;;15.10;99.90;;;;;;5014422;28;20910;-71
2022/10/26 01:37:30;;;;;;;2.63;1.50;;;15.10;99.90;;;;;;5004311;28;20548;-70
2022/10/26 01:40:19;;;;;;;2.27;1.70;;;15.10;99.90;;;;;;4993230;28;20429;-70
2022/10/26 01:42:49;;;;;;;5.30;1.60;;;15.10;99.90;;;;;;4994991;28;20482;-70
2022/10/26 01:45:17;;;;;;;2.20;1.60;;;15.10;99.90;;;;;;5007147;28;20507;-70
2022/10/26 01:47:49;;;;;;;3.20;1.60;;;15.10;99.90;;;;;;5006974;28;20447;-70
2022/10/26 01:50:21;;;;;;;2.10;1.87;;;15.10;99.90;;;;;;5011030;28;20445;-70
2022/10/26 01:52:50;;;;;;;2.23;1.47;;;15.10;99.90;;;;;;5010353;28;20439;-70
2022/10/26 01:55:37;;;;;;;3.50;2.30;;;15.10;99.90;;;;;;4996674;28;20429;-70
2022/10/26 01:58:20;;;;;;;4.70;1.63;;;15.10;99.90;;;;;;5000752;28;20665;-70
2022/10/26 02:01:13;;;;;;;5.47;1.93;;;15.10;99.90;;;;;;5010534;28;20868;-70
2022/10/26 02:03:52;;;;;;;4.50;1.73;;;15.10;99.90;;;;;;5003833;28;20998;-70
2022/10/26 02:06:49;;;;;;;4.03;1.70;;;15.10;99.90;;;;;;5013613;28;20436;-70
2022/10/26 02:09:36;;;;;;;3.77;1.47;;;15.10;99.90;;;;;;5011536;28;20448;-70
2022/10/26 02:12:13;;;;;;;4.90;1.90;;;15.10;99.90;;;;;;5013165;28;20431;-70
2022/10/26 02:14:54;;;;;;;2.53;1.60;;;15.10;99.90;;;;;;5001703;28;20413;-70
2022/10/26 02:17:32;;;;;;;3.73;1.77;;;15.10;99.90;;;;;;4999979;28;20849;-70
2022/10/26 02:20:01;;;;;;;5.10;1.60;;;15.10;99.90;;;;;;5006926;28;20435;-70
2022/10/26 02:22:32;;;;;;;4.30;1.73;;;15.10;99.90;;;;;;4996667;28;20489;-70
2022/10/26 02:25:04;;;;;;;3.80;1.90;;;15.10;99.90;;;;;;4991914;28;20419;-70
2022/10/26 02:28:00;;;;;;;2.43;1.80;;;15.10;99.90;;;;;;4961738;28;20469;-70
2022/10/26 02:30:32;;;;;;;1.83;1.37;;;15.10;99.90;;;;;;5003827;28;20464;-70
2022/10/26 02:33:02;;;;;;;3.57;1.60;;;15.10;99.90;;;;;;4981492;28;20422;-70
2022/10/26 02:35:35;;;;;;;7.53;1.63;;;15.10;99.90;;;;;;5017235;28;20431;-70
2022/10/26 02:38:08;;;;;;;4.90;1.70;;;15.10;99.90;;;;;;5015096;28;20474;-70
2022/10/26 02:40:40;;;;;;;2.90;2.00;;;15.10;99.90;;;;;;5002640;28;20494;-70
2022/10/26 02:43:19;;;;;;;4.17;2.00;;;15.10;99.90;;;;;;5001393;28;21237;-70
2022/10/26 02:45:52;;;;;;;2.70;2.47;;;15.10;99.90;;;;;;4999121;28;20479;-70
2022/10/26 02:48:18;;;;;;;25.37;2.33;;;15.10;99.90;;;;;;4985064;28;20472;-70
2022/10/26 02:51:11;;;;;;;2.87;1.57;;;15.10;99.90;;;;;;4994938;28;20471;-70
2022/10/26 02:53:46;;;;;;;2.80;1.20;;;15.10;99.90;;;;;;4981093;28;20420;-70
2022/10/26 02:56:41;;;;;;;3.53;1.90;;;15.10;99.90;;;;;;5009753;28;20416;-70
2022/10/26 02:59:11;;;;;;;2.37;1.57;;;15.10;99.90;;;;;;5004631;28;20444;-70
2022/10/26 03:01:41;;;;;;;3.00;1.50;;;15.10;99.90;;;;;;5004536;28;20443;-70
2022/10/26 03:04:09;;;;;;;4.17;1.83;;;15.10;99.90;;;;;;5013911;28;20515;-70
2022/10/26 03:06:35;;;;;;;3.00;2.00;;;15.10;99.90;;;;;;5010271;28;20434;-70
2022/10/26 03:09:04;;;;;;;3.63;1.67;;;15.10;99.90;;;;;;5002217;28;20510;-70
2022/10/26 03:11:35;;;;;;;2.40;1.57;;;15.10;99.90;;;;;;4998182;28;20985;-70
2022/10/26 03:14:03;;;;;;;2.17;1.50;;;15.10;99.90;;;;;;5001983;28;20422;-70
2022/10/26 03:16:31;;;;;;;6.63;1.97;;;15.10;99.90;;;;;;4996996;28;20937;-70
2022/10/26 03:18:57;;;;;;;2.33;1.80;;;15.10;99.90;;;;;;4995751;28;20443;-70
2022/10/26 03:21:25;;;;;;;2.20;1.90;;;15.10;99.90;;;;;;5003647;28;20266;-70
2022/10/26 03:23:54;;;;;;;3.00;2.10;;;15.10;99.90;;;;;;5005355;28;20421;-70
2022/10/26 03:26:20;;;;;;;2.63;1.70;;;15.10;99.90;;;;;;5011963;28;20522;-70
2022/10/26 03:28:50;;;;;;;2.73;1.43;;;15.10;99.90;;;;;;4994088;28;20795;-70
2022/10/26 03:31:18;;;;;;;2.63;1.53;;;15.10;99.90;;;;;;5003206;28;20464;-70
2022/10/26 03:33:47;;;;;;;4.30;1.73;;;15.10;99.90;;;;;;5008696;28;20430;-70
2022/10/26 03:36:13;;;;;;;2.43;1.93;;;15.10;99.90;;;;;;5002780;28;20437;-70
2022/10/26 03:38:41;;;;;;;2.97;1.70;;;15.10;99.90;;;;;;4984307;28;20205;-70
2022/10/26 03:41:09;;;;;;;3.33;1.83;;;15.10;99.90;;;;;;5010196;28;20423;-70
2022/10/26 03:43:35;;;;;;;3.50;1.50;;;15.10;99.90;;;;;;5004750;28;20485;-70
2022/10/26 03:46:01;;;;;;;3.67;1.60;;;15.10;99.90;;;;;;5011103;28;20425;-70
2022/10/26 03:48:32;;;;;;;2.70;1.63;;;15.10;99.90;;;;;;5003380;28;20266;-70
2022/10/26 03:50:59;;;;;;;1.93;1.70;;;15.10;99.90;;;;;;5007399;28;20541;-70
2022/10/26 03:53:29;;;;;;;4.33;1.60;;;15.10;99.90;;;;;;4979764;28;20491;-70
2022/10/26 03:55:57;;;;;;;3.33;1.60;;;15.10;99.90;;;;;;4989765;28;20434;-70
2022/10/26 03:58:26;;;;;;;5.27;2.27;;;15.10;99.90;;;;;;4994854;28;20442;-70
2022/10/26 04:00:55;;;;;;;1.97;1.53;;;15.10;99.90;;;;;;5003114;28;20203;-70
2022/10/26 04:03:21;;;;;;;2.53;1.70;;;15.10;99.90;;;;;;5005420;28;20421;-70
2022/10/26 04:05:49;;;;;;;3.23;1.47;;;15.10;99.90;;;;;;5008774;28;20175;-70
2022/10/26 04:08:17;;;;;;;2.90;1.63;;;15.10;99.90;;;;;;5002638;28;20984;-70
2022/10/26 04:10:45;;;;;;;4.67;1.60;;;15.10;99.90;;;;;;4998898;28;20600;-70
2022/10/26 04:13:22;;;;;;;3.07;1.67;;;15.10;99.90;;;;;;5008067;28;20438;-70
2022/10/26 04:15:51;;;;;;;2.80;1.70;;;15.10;99.90;;;;;;5010782;28;20428;-70
2022/10/26 04:18:31;;;;;;;3.17;1.90;;;15.10;99.90;;;;;;5003440;28;20472;-70
2022/10/26 04:21:01;;;;;;;3.70;2.17;;;15.10;99.90;;;;;;5011292;28;20426;-70
2022/10/26 04:23:27;;;;;;;4.47;1.73;;;15.10;99.90;;;;;;5005260;28;20430;-70
2022/10/26 04:25:53;;;;;;;3.60;2.00;;;15.10;99.90;;;;;;5000678;28;20872;-70
2022/10/26 04:28:24;;;;;;;2.47;2.07;;;15.10;99.90;;;;;;5011648;28;20484;-70
2022/10/26 04:30:50;;;;;;;3.90;1.53;;;15.10;99.90;;;;;;5005856;28;20463;-70
2022/10/26 04:33:16;;;;;;;5.40;1.67;;;15.10;99.90;;;;;;5000366;28;20420;-70
2022/10/26 04:35:42;;;;;;;2.27;1.70;;;15.10;99.90;;;;;;5008306;28;20506;-70
2022/10/26 04:38:11;;;;;;;2.67;1.70;;;15.10;99.90;;;;;;4984503;28;20878;-70
2022/10/26 04:40:41;;;;;;;3.80;1.60;;;15.10;99.90;;;;;;5005183;28;20178;-70
2022/10/26 04:43:10;;;;;;;5.20;1.87;;;15.10;99.90;;;;;;4998017;28;20421;-70
2022/10/26 04:45:39;;;;;;;3.20;1.80;;;15.10;99.90;;;;;;5009281;28;20471;-70
2022/10/26 04:48:10;;;;;;;3.10;1.70;;;15.10;99.90;;;;;;5004802;28;20480;-70
2022/10/26 04:50:36;;;;;;;6.03;1.77;;;15.10;99.90;;;;;;4996374;28;20448;-70
2022/10/26 04:53:06;;;;;;;7.00;2.27;;;15.10;99.90;;;;;;5002053;28;20421;-70
2022/10/26 04:55:35;;;;;;;2.07;1.53;;;15.10;99.90;;;;;;5008139;28;20801;-70
2022/10/26 04:58:03;;;;;;;2.63;1.53;;;15.10;99.90;;;;;;4998807;28;20475;-70
2022/10/26 05:00:33;;;;;;;3.23;1.87;;;15.10;99.90;;;;;;4994981;28;20921;-70
2022/10/26 05:03:04;;;;;;;5.37;1.67;;;15.10;99.90;;;;;;4999449;28;20460;-70
2022/10/26 05:05:37;;;;;;;3.50;1.73;;;15.10;99.90;;;;;;5002372;28;20427;-70
2022/10/26 05:08:04;;;;;;;4.67;1.80;;;15.10;99.90;;;;;;4998743;28;20466;-70
2022/10/26 05:10:30;;;;;;;2.40;1.23;;;15.10;99.90;;;;;;5006334;28;20467;-70
2022/10/26 05:12:59;;;;;;;2.27;1.70;;;15.10;99.90;;;;;;4980983;28;20463;-70
2022/10/26 05:15:28;;;;;;;3.77;1.63;;;15.10;99.90;;;;;;5011628;28;20956;-70
2022/10/26 05:18:02;;;;;;;5.90;1.67;;;15.10;99.90;;;;;;4994073;28;20839;-72
2022/10/26 05:20:37;;;;;;;2.43;1.77;;;15.10;99.90;;;;;;5002163;28;20972;-72
2022/10/26 05:23:09;;;;;;;3.10;1.80;;;15.10;99.90;;;;;;4988315;28;20469;-73
2022/10/26 05:25:42;;;;;;;5.20;1.80;;;15.10;99.90;;;;;;5004454;28;20980;-74
2022/10/26 05:28:12;;;;;;;3.33;1.67;;;15.10;99.90;;;;;;5010019;28;20580;-73
2022/10/26 05:30:39;;;;;;;3.90;1.90;;;15.10;99.90;;;;;;4983836;28;20457;-74
2022/10/26 05:33:06;;;;;;;4.43;2.10;;;15.10;99.90;;;;;;4993499;28;20781;-73
2022/10/26 05:35:35;;;;;;;2.60;1.90;;;15.10;99.90;;;;;;4991563;28;20469;-72
2022/10/26 05:38:13;;;;;;;4.70;1.77;;;15.10;99.90;;;;;;5010469;28;20447;-73
2022/10/26 05:40:49;;;;;;;2.80;1.57;;;15.20;99.90;;;;;;4994703;28;20449;-73
2022/10/26 05:43:18;;;;;;;2.80;1.57;;;15.20;99.90;;;;;;4995314;28;20557;-73
2022/10/26 05:45:47;;;;;;;3.10;1.43;;;15.10;99.90;;;;;;4990505;28;20413;-73
2022/10/26 05:48:13;;;;;;;3.83;1.90;;;15.10;99.90;;;;;;4991423;28;20440;-73
2022/10/26 05:50:39;;;;;;;2.37;1.80;;;15.20;99.90;;;;;;4991735;28;20816;-72
2022/10/26 05:53:05;;;;;;;3.20;1.90;;;15.10;99.90;;;;;;4990850;28;20737;-73
2022/10/26 05:55:34;;;;;;;3.53;1.83;;;15.10;99.90;;;;;;4992031;28;20571;-73
2022/10/26 05:58:00;;;;;;;7.33;1.80;;;15.20;99.90;;;;;;4990704;28;20435;-72
2022/10/26 06:00:34;;;;;;;2.57;1.60;;;15.10;99.90;;;;;;4991531;28;20405;-73
2022/10/26 06:03:11;;;;;;;3.17;2.13;;;15.10;99.90;;;;;;4990430;28;20442;-72
2022/10/26 06:05:53;;;;;;;3.83;2.03;;;15.10;99.90;;;;;;4991891;28;20418;-72
2022/10/26 06:08:24;;;;;;;3.57;1.90;;;15.10;99.90;;;;;;4995854;28;20466;-72
2022/10/26 06:10:50;;;;;;;4.77;1.60;;;15.10;99.90;;;;;;5029518;28;20456;-73
2022/10/26 06:13:20;;;;;;;2.13;1.50;;;15.10;99.90;;;;;;5015051;28;20911;-72
2022/10/26 06:16:01;;;;;;;4.40;2.00;;;15.10;99.90;;;;;;5013415;28;20413;-72
2022/10/26 06:19:01;;;;;;;3.93;1.93;;;15.10;99.90;;;;;;5014822;28;20452;-73
2022/10/26 06:21:48;;;;;;;3.47;1.93;;;15.10;99.90;;;;;;5013533;28;20444;-72
2022/10/26 06:24:25;;;;;;;2.80;1.60;;;15.10;99.90;;;;;;5013833;28;20409;-73
2022/10/26 06:27:03;;;;;;;2.73;1.87;;;15.10;99.90;;;;;;5014744;28;20932;-73
2022/10/26 06:30:09;;;;;;;2.10;1.80;;;15.10;99.90;;;;;;5013570;28;20510;-73
2022/10/26 06:32:46;;;;;;;2.70;1.90;;;15.10;99.90;;;;;;5013437;28;20435;-73
2022/10/26 06:35:16;;;;;;;3.70;1.67;;;15.10;99.90;;;;;;5013639;28;20419;-72
2022/10/26 06:37:47;;;;;;;2.07;1.60;;;15.10;99.90;;;;;;5014431;28;20671;-72
2022/10/26 06:40:48;;;;;;;3.13;1.60;;;15.10;99.90;;;;;;4943837;28;20454;-72
2022/10/26 06:43:26;;;;;;;2.60;1.43;;;15.10;99.90;;;;;;5013137;28;20409;-72
2022/10/26 06:46:05;;;;;;;2.60;1.50;;;15.10;99.90;;;;;;4995871;28;20490;-73
2022/10/26 06:48:59;;;;;;;2.40;1.90;;;15.10;99.90;;;;;;4996222;28;20453;-71
2022/10/26 06:51:31;;;;;;;2.60;1.40;;;15.10;99.90;;;;;;5014083;28;20446;-71
2022/10/26 06:54:14;;;;;;;8.17;1.80;;;15.10;99.90;;;;;;5080432;23;20525;-94
2022/10/26 06:56:45;;;;;;;3.33;1.50;;;15.10;99.90;;;;;;5031300;28;20434;-91
2022/10/26 06:59:23;;;;;;;2.67;1.50;;;15.10;99.90;;;;;;5041233;28;20454;-93
2022/10/26 07:01:49;;;;;;;3.07;1.90;;;15.10;99.90;;;;;;5011989;28;20437;-93
2022/10/26 07:04:15;;;;;;;3.43;1.73;;;15.10;99.90;;;;;;5004731;28;20505;-93
2022/10/26 07:06:41;;;;;;;1.80;1.20;;;15.20;99.90;;;;;;5021180;28;20435;-94
2022/10/26 07:09:07;;;;;;;4.33;1.70;;;15.10;99.90;;;;;;5004585;28;20762;-90
2022/10/26 07:11:33;;;;;;;2.60;1.50;;;15.10;99.90;;;;;;5005023;28;20492;-94
2022/10/26 07:13:59;;;;;;;2.80;1.83;;;15.20;99.90;;;;;;5038199;28;20419;-94
2022/10/26 07:16:25;;;;;;;2.50;1.50;;;15.10;99.90;;;;;;5037905;28;20875;-93
2022/10/26 07:18:51;;;;;;;6.60;1.90;;;15.20;99.90;;;;;;4988252;28;20458;-93
2022/10/26 07:21:17;;;;;;;2.50;1.57;;;15.20;99.90;;;;;;5020977;28;20444;-91
2022/10/26 07:23:43;;;;;;;2.67;1.70;;;15.20;99.90;;;;;;5004426;28;20422;-92
2022/10/26 07:26:09;;;;;;;3.60;1.80;;;15.20;99.90;;;;;;5037704;28;20448;-94
2022/10/26 07:28:35;;;;;;;2.23;1.50;;;15.20;99.90;;;;;;4988007;28;20441;-94
2022/10/26 07:31:04;;;;;;;3.60;1.93;;;15.20;99.90;;;;;;5004768;28;20482;-93
2022/10/26 07:33:30;;;;;;;1.93;1.53;;;15.20;99.90;;;;;;5020745;28;20974;-93
2022/10/26 07:35:58;;;;;;;4.80;1.67;;;15.20;99.90;;;;;;5012223;28;20422;-94
2022/10/26 07:38:24;;;;;;;2.10;1.33;;;15.20;99.90;;;;;;5024269;28;20501;-93
2022/10/26 07:40:53;;;;;;;3.43;1.77;;;15.20;99.90;;;;;;5040342;28;20431;-95
2022/10/26 07:43:19;;;;;;;2.10;1.90;;;15.20;99.90;;;;;;5023799;28;20436;-92
2022/10/26 07:45:48;;;;;;;2.10;1.50;;;15.20;99.90;;;;;;5039951;28;20491;-93
2022/10/26 07:48:14;;;;;;;4.70;1.70;;;15.20;99.90;;;;;;5057548;28;20431;-94
2022/10/26 07:50:40;;;;;;;3.40;1.83;;;15.20;99.90;;;;;;5040124;28;20468;-94
2022/10/26 07:53:06;;;;;;;2.20;1.90;;;15.20;99.90;;;;;;5023445;28;20450;-93
2022/10/26 07:55:32;;;;;;;3.83;1.70;;;15.20;99.90;;;;;;5006919;28;20447;-94
2022/10/26 07:57:58;;;;;;;5.47;2.00;;;15.20;99.90;;;;;;5039832;28;20414;-95
2022/10/26 08:01:03;;;;;;;3.53;1.60;;;15.20;99.90;;;;;;5035083;28;20446;-92
2022/10/26 08:03:29;;;;;;;2.20;2.00;;;15.20;99.90;;;;;;5015003;28;20442;-94
2022/10/26 08:05:55;;;;;;;2.40;1.60;;;15.20;99.90;;;;;;5037672;28;20454;-93
2022/10/26 08:08:24;;;;;;;6.10;1.60;;;15.20;99.90;;;;;;5039363;28;20192;-93
2022/10/26 08:11:17;;;;;;;2.43;1.67;;;15.20;99.90;;;;;;5040310;28;20491;-94
2022/10/26 08:13:45;;;;;;;5.50;2.10;;;15.20;99.90;;;;;;5020012;28;20421;-93
2022/10/26 08:16:11;;;;;;;3.67;1.97;;;15.20;99.90;;;;;;5003842;28;20438;-93
2022/10/26 08:18:40;;;;;;;5.70;1.60;;;15.20;99.90;;;;;;5004095;28;20427;-93
2022/10/26 08:21:10;;;;;;;4.30;2.10;;;15.20;99.90;;;;;;4987186;28;21040;-95
2022/10/26 08:23:36;;;;;;;3.20;1.83;;;15.20;99.90;;;;;;5019927;28;20504;-95
2022/10/26 08:26:03;;;;;;;1.63;1.30;;;15.20;99.90;;;;;;5019807;28;20503;-95
2022/10/26 08:28:31;;;;;;;3.80;1.73;;;15.20;99.90;;;;;;5003497;28;20420;-93
2022/10/26 08:30:58;;;;;;;3.37;1.70;;;15.20;99.90;;;;;;5019094;28;20467;-93
2022/10/26 08:33:27;;;;;;;2.83;1.87;;;15.20;99.90;;;;;;5002639;28;20434;-93
2022/10/26 08:36:01;;;;;;;5.37;1.63;;;15.20;99.90;;;;;;5002909;28;20447;-95
2022/10/26 08:38:27;;;;;;;4.30;1.80;;;15.20;99.90;;;;;;5036499;28;20896;-92
2022/10/26 08:40:56;;;;;;;2.40;2.00;;;15.20;99.90;;;;;;5039439;28;20434;-94
2022/10/26 08:43:38;;;;;;;3.57;1.90;;;15.30;99.90;;;;;;5039027;28;20410;-92
2022/10/26 08:46:24;;;;;;;4.70;2.20;;;15.30;99.90;;;;;;5022876;28;20488;-95
2022/10/26 08:48:55;;;;;;;2.63;1.50;;;15.30;99.90;;;;;;5039244;28;20457;-94
2022/10/26 08:51:36;;;;;;;2.40;1.53;;;15.30;99.90;;;;;;5038914;28;20643;-93
2022/10/26 08:54:13;;;;;;;3.20;1.80;;;15.30;99.90;;;;;;5006519;28;20503;-94
2022/10/26 08:56:43;;;;;;;4.20;1.53;;;15.30;99.90;;;;;;5021076;28;20452;-93
2022/10/26 08:59:45;;;;;;;1.77;1.50;;;15.30;99.90;;;;;;5039113;28;20541;-94
2022/10/26 09:02:17;;;;;;;3.90;1.50;;;15.30;99.90;;;;;;4975594;28;20457;-93
2022/10/26 09:04:44;;;;;;;2.83;1.73;;;15.40;99.90;;;;;;4976044;28;20422;-93
2022/10/26 09:07:37;;;;;;;4.27;1.60;;;15.40;99.90;;;;;;4959459;28;20422;-94
2022/10/26 09:10:50;;;;;;;1.87;1.50;;;15.40;99.90;;;;;;4959645;28;20475;-93
2022/10/26 09:13:35;;;;;;;3.27;1.93;;;15.40;99.90;;;;;;4959610;28;20430;-93
2022/10/26 09:16:16;;;;;;;9.47;2.10;;;15.40;99.90;;;;;;4958388;28;20531;-90
2022/10/26 09:19:00;;;;;;;2.80;1.73;;;15.50;99.90;;;;;;4940657;28;20439;-93
2022/10/26 09:21:48;;;;;;;13.20;2.03;;;15.50;99.90;;;;;;4943697;28;20427;-95
2022/10/26 09:24:31;;;;;;;2.77;2.00;;;15.50;99.90;;;;;;4959399;28;20611;-93
2022/10/26 09:27:16;;;;;;;3.10;2.27;;;15.50;99.90;;;;;;4943563;28;20426;-94
2022/10/26 09:29:48;;;;;;;2.23;2.00;;;15.50;99.90;;;;;;4959662;28;20454;-95
2022/10/26 09:32:43;;;;;;;5.27;2.10;;;15.50;99.90;;;;;;4959521;28;20419;-94
2022/10/26 09:35:34;;;;;;;2.37;1.60;;;15.50;99.90;;;;;;4958953;28;20466;-93
2022/10/26 09:38:37;;;;;;;3.30;2.17;;;15.60;99.90;;;;;;5006670;28;20423;-93
2022/10/26 09:41:30;;;;;;;3.40;1.77;;;15.50;99.90;;;;;;5055509;28;20448;-95
2022/10/26 09:44:17;;;;;;;2.83;1.80;;;15.60;99.90;;;;;;5022370;28;20787;-94
2022/10/26 09:47:05;;;;;;;2.77;1.97;;;15.60;99.90;;;;;;5041896;28;20604;-93
2022/10/26 09:49:54;;;;;;;4.53;1.80;;;15.60;99.90;;;;;;5025731;28;20429;-94
2022/10/26 09:52:25;;;;;;;2.40;1.80;;;15.60;99.90;;;;;;5026058;28;20434;-93
2022/10/26 09:54:53;;;;;;;2.83;1.77;;;15.70;99.90;;;;;;5059367;28;20779;-92
2022/10/26 09:57:19;;;;;;;2.90;2.00;;;15.60;99.90;;;;;;5042081;28;20402;-94
2022/10/26 09:59:51;;;;;;;3.10;1.70;;;15.70;99.90;;;;;;5059212;28;20768;-94
2022/10/26 10:02:34;;;;;;;3.00;2.20;;;15.70;99.90;;;;;;5026105;28;20509;-93
2022/10/26 10:05:01;;;;;;;5.20;2.13;;;15.70;99.90;;;;;;5042154;28;20935;-93
2022/10/26 10:07:27;;;;;;;3.23;1.80;;;15.70;99.90;;;;;;5009334;28;20512;-94
2022/10/26 10:10:16;;;;;;;3.13;2.03;;;15.70;99.90;;;;;;5025895;28;20420;-94
2022/10/26 10:12:43;;;;;;;4.20;1.83;;;15.80;99.90;;;;;;5009186;28;20449;-94
2022/10/26 10:15:19;;;;;;;3.60;2.03;;;15.80;99.90;;;;;;5041804;28;20442;-94
2022/10/26 10:17:56;;;;;;;3.93;2.23;;;15.80;99.90;;;;;;5025162;28;20458;-93
2022/10/26 10:20:30;;;;;;;2.47;2.03;;;15.80;99.90;;;;;;5025328;28;20644;-94
2022/10/26 10:22:58;;;;;;;3.13;2.33;;;15.80;99.90;;;;;;5041948;28;20513;-94
2022/10/26 10:25:36;;;;;;;3.87;2.30;;;15.90;99.90;;;;;;5041667;28;20434;-95
2022/10/26 10:28:22;;;;;;;7.03;2.27;;;15.90;99.90;;;;;;5032196;28;20914;-95
2022/10/26 10:30:58;;;;;;;3.77;2.20;;;15.90;99.90;;;;;;5061336;28;20460;-93
2022/10/26 10:33:38;;;;;;;3.10;1.90;;;15.90;99.90;;;;;;5028549;28;20445;-93
2022/10/26 10:36:13;;;;;;;4.00;2.33;;;15.90;99.90;;;;;;5044712;28;20859;-93
2022/10/26 10:38:44;;;;;;;7.70;2.30;;;16.00;99.90;;;;;;5045103;28;20443;-92
2022/10/26 10:41:16;;;;;;;2.67;1.93;;;16.00;99.90;;;;;;5044748;28;20424;-94
2022/10/26 10:43:48;;;;;;;4.33;2.40;;;16.00;99.90;;;;;;5033349;28;20455;-91
2022/10/26 10:46:24;;;;;;;5.67;2.30;;;16.00;99.90;;;;;;5058599;28;20408;-88
2022/10/26 10:49:01;;;;;;;4.43;2.87;;;16.00;99.90;;;;;;5021335;28;20421;-90
2022/10/26 10:51:29;;;;;;;3.70;2.53;;;16.00;99.90;;;;;;5021007;28;20568;-91
2022/10/26 10:53:58;;;;;;;4.20;2.50;;;16.10;99.90;;;;;;5020958;28;20768;-91
2022/10/26 10:56:36;;;;;;;5.83;2.77;;;16.10;99.90;;;;;;5037756;28;20439;-91
2022/10/26 10:59:21;;;;;;;4.60;2.60;;;16.10;99.90;;;;;;5037754;28;20432;-88
2022/10/26 11:02:10;;;;;;;4.37;2.50;;;16.10;99.90;;;;;;5040848;28;20739;-91
2022/10/26 11:04:55;;;;;;;5.07;2.50;;;16.10;99.90;;;;;;5024580;28;20431;-91
2022/10/26 11:07:24;;;;;;;4.13;2.77;;;16.20;99.90;;;;;;5008165;28;20443;-90
2022/10/26 11:09:52;;;;;;;4.53;2.73;;;16.20;99.90;;;;;;5040221;28;20447;-91
2022/10/26 11:12:25;;;;;;;5.90;3.00;;;16.20;99.90;;;;;;5023863;28;20426;-88
2022/10/26 11:15:13;;;;;;;4.70;2.67;;;16.20;99.90;;;;;;5056570;28;20419;-90
2022/10/26 11:18:03;;;;;;;2.73;2.50;;;16.20;99.90;;;;;;5040545;28;20479;-90
2022/10/26 11:20:34;;;;;;;4.40;2.90;;;16.20;99.90;;;;;;5024430;28;20452;-91
2022/10/26 11:23:27;;;;;;;7.67;2.50;;;16.30;99.90;;;;;;5034769;28;20438;-91
2022/10/26 11:26:02;;;;;;;4.93;2.63;;;16.30;99.90;;;;;;5004558;28;20742;-90
2022/10/26 11:28:54;;;;;;;4.23;2.37;;;16.30;99.90;;;;;;5020631;28;20508;-91
2022/10/26 11:31:29;;;;;;;3.80;2.53;;;16.30;99.90;;;;;;5004436;28;20472;-91
2022/10/26 11:34:05;;;;;;;7.20;2.53;;;16.30;99.90;;;;;;4988345;28;20458;-91
2022/10/26 11:36:33;;;;;;;4.97;2.90;;;16.40;99.90;;;;;;5020526;28;20396;-91
2022/10/26 11:39:26;;;;;;;5.63;3.30;;;16.40;99.90;;;;;;5020658;28;20760;-91
2022/10/26 11:42:13;;;;;;;9.03;2.60;;;16.40;99.90;;;;;;5020683;28;20415;-91
2022/10/26 11:44:47;;;;;;;7.90;2.80;;;16.40;99.90;;;;;;4988062;28;20444;-92
2022/10/26 11:47:21;;;;;;;4.90;2.20;;;16.40;99.90;;;;;;5020659;28;20516;-92
2022/10/26 11:50:01;;;;;;;4.50;2.30;;;16.50;99.90;;;;;;5004259;28;20457;-91
2022/10/26 11:52:37;;;;;;;4.80;2.60;;;16.50;99.90;;;;;;5003990;28;20435;-91
2022/10/26 11:55:03;;;;;;;4.60;2.10;;;16.50;99.90;;;;;;5036988;28;20440;-92
2022/10/26 11:57:32;;;;;;;4.00;2.50;;;16.50;99.90;;;;;;5020189;28;20783;-92
2022/10/26 12:00:03;;;;;;;4.20;1.90;;;16.60;99.90;;;;;;5037564;28;20416;-89
2022/10/26 12:02:32;;;;;;;2.83;2.13;;;16.60;99.90;;;;;;5055833;28;20566;-92
2022/10/26 12:05:16;;;;;;;5.50;2.50;;;16.60;99.90;;;;;;5040086;28;20748;-94
2022/10/26 12:07:55;;;;;;;2.30;1.93;;;16.60;99.90;;;;;;5022124;28;20429;-92
2022/10/26 12:10:26;;;;;;;3.00;1.97;;;16.60;99.90;;;;;;5023895;28;20483;-94
2022/10/26 12:13:27;;;;;;;2.90;1.87;;;16.70;99.90;;;;;;5023399;28;20536;-92
2022/10/26 12:16:20;;;;;;;4.90;2.40;;;16.70;99.90;;;;;;5056982;28;20525;-93
2022/10/26 12:18:53;;;;;;;2.63;1.90;;;16.70;99.90;;;;;;5047320;28;20490;-93
2022/10/26 12:21:19;;;;;;;4.10;1.70;;;16.70;99.90;;;;;;5006940;28;20453;-93
2022/10/26 12:23:56;;;;;;;3.83;1.80;;;16.70;99.90;;;;;;5023298;28;20905;-93
2022/10/26 12:26:22;;;;;;;2.57;1.90;;;16.80;99.90;;;;;;5023566;28;20426;-95
2022/10/26 12:29:23;;;;;;;6.10;2.30;;;16.80;99.90;;;;;;5039524;28;20515;-94
2022/10/26 12:31:49;;;;;;;3.37;2.03;;;16.80;99.90;;;;;;5039461;28;20488;-94
2022/10/26 12:34:45;;;;;;;2.20;1.90;;;16.80;99.90;;;;;;5022142;28;20763;-93
2022/10/26 12:37:30;;;;;;;3.10;2.23;;;16.80;99.90;;;;;;5039892;28;20445;-93
2022/10/26 12:40:31;;;;;;;5.50;2.03;;;16.80;99.90;;;;;;5006481;28;20509;-93
2022/10/26 12:43:17;;;;;;;5.47;1.90;;;16.90;99.90;;;;;;5039057;28;20424;-93
2022/10/26 12:46:09;;;;;;;4.17;2.03;;;16.90;99.90;;;;;;5056296;28;20427;-92
2022/10/26 12:48:38;;;;;;;2.30;2.10;;;16.90;99.90;;;;;;5038959;28;20472;-92
2022/10/26 12:51:18;;;;;;;4.53;1.67;;;16.90;99.90;;;;;;5022352;28;20483;-94
2022/10/26 12:54:08;;;;;;;3.80;2.00;;;17.00;99.90;;;;;;5022339;28;20435;-93
2022/10/26 12:56:41;;;;;;;3.10;1.73;;;17.00;99.90;;;;;;5038723;28;20487;-93
2022/10/26 12:59:18;;;;;;;4.13;2.20;;;17.00;99.90;;;;;;5022602;28;20513;-92
2022/10/26 13:01:56;;;;;;;2.20;1.57;;;17.00;99.90;;;;;;5022467;28;20482;-92
2022/10/26 13:05:03;;;;;;;8.40;2.70;;;17.00;99.90;;;;;;5038802;28;20401;-94
2022/10/26 13:07:39;;;;;;;3.00;2.10;;;17.00;99.90;;;;;;5056316;28;20389;-95
2022/10/26 13:10:16;;;;;;;6.30;1.97;;;17.00;99.90;;;;;;5039217;28;20463;-92
2022/10/26 13:13:18;;;;;;;4.70;2.30;;;17.10;99.90;;;;;;5011544;28;20419;-93
2022/10/26 13:16:03;;;;;;;3.80;1.83;;;17.10;99.90;;;;;;5038472;28;20434;-93
2022/10/26 13:18:29;;;;;;;4.27;2.03;;;17.10;99.90;;;;;;5022040;28;20399;-93
2022/10/26 13:21:15;;;;;;;2.20;2.00;;;17.10;99.90;;;;;;5022610;28;20489;-92
2022/10/26 13:23:47;;;;;;;2.40;1.83;;;17.10;99.90;;;;;;5038862;28;20448;-93
2022/10/26 13:26:17;;;;;;;3.13;1.97;;;17.10;99.90;;;;;;5022555;28;20444;-92
2022/10/26 13:28:46;;;;;;;3.30;1.90;;;17.10;99.90;;;;;;5038718;28;20468;-92